createdAt,value
2019-04-16T00:00:33.828Z,1.10
2019-04-16T00:03:01.099Z,1.40
2019-04-16T00:05:29.940Z,1.45
2019-04-16T00:07:58.884Z,1.50
2019-04-16T00:10:27.976Z,1.50
2019-04-16T00:13:13.518Z,1.52
2019-04-16T00:15:41.367Z,1.60
2019-04-16T00:18:09.313Z,1.37
2019-04-16T00:20:38.336Z,1.60
2019-04-16T00:23:07.173Z,1.30
2019-04-16T00:25:34.540Z,1.40
2019-04-16T00:28:01.851Z,1.20
2019-04-16T00:30:29.120Z,1.02
2019-04-16T00:32:56.385Z,1.67
2019-04-16T00:35:23.625Z,2.53
2019-04-16T00:37:51.770Z,2.55
2019-04-16T00:40:19.568Z,2.30
2019-04-16T00:42:46.808Z,2.15
2019-04-16T00:45:14.004Z,2.10
2019-04-16T00:47:41.204Z,2.35
2019-04-16T00:50:08.521Z,2.33
2019-04-16T00:52:37.073Z,3.10
2019-04-16T00:55:05.283Z,2.70
2019-04-16T00:57:36.096Z,2.50
2019-04-16T01:00:05.165Z,2.20
2019-04-16T01:02:32.437Z,2.20
2019-04-16T01:04:59.733Z,3.12
2019-04-16T01:07:26.948Z,2.60
2019-04-16T01:09:54.213Z,2.17
2019-04-16T01:12:21.816Z,2.08
2019-04-16T01:14:49.011Z,2.12
2019-04-16T01:17:16.234Z,1.57
2019-04-16T01:19:43.589Z,1.80
2019-04-16T01:22:15.313Z,1.80
2019-04-16T01:24:39.708Z,1.77
2019-04-16T01:27:07.204Z,2.05
2019-04-16T01:29:34.664Z,2.20
2019-04-16T01:32:12.473Z,2.00
2019-04-16T01:34:48.333Z,2.12
2019-04-16T01:37:25.805Z,2.10
2019-04-16T01:39:54.020Z,1.52
2019-04-16T01:42:23.576Z,1.30
2019-04-16T01:44:50.321Z,1.70
2019-04-16T01:47:17.782Z,1.20
2019-04-16T01:49:45.048Z,2.10
2019-04-16T01:52:12.285Z,1.50
2019-04-16T01:54:39.556Z,1.90
2019-04-16T01:57:07.082Z,2.00
2019-04-16T01:59:35.807Z,2.55
2019-04-16T02:02:03.240Z,2.00
2019-04-16T02:04:30.442Z,1.37
2019-04-16T02:06:57.886Z,1.47
2019-04-16T02:09:25.157Z,2.45
2019-04-16T02:11:52.431Z,3.42
2019-04-16T02:14:22.268Z,4.67
2019-04-16T02:16:48.586Z,4.62
2019-04-16T02:19:16.133Z,3.60
2019-04-16T02:21:43.400Z,3.10
2019-04-16T02:24:10.596Z,2.80
2019-04-16T02:26:37.800Z,3.22
2019-04-16T02:29:05.396Z,3.58
2019-04-16T02:31:32.593Z,3.02
2019-04-16T02:33:59.869Z,2.67
2019-04-16T02:36:27.182Z,2.50
2019-04-16T02:38:54.463Z,2.67
2019-04-16T02:41:23.327Z,2.58
2019-04-16T02:43:50.668Z,2.58
2019-04-16T02:46:17.890Z,2.80
2019-04-16T02:48:50.267Z,3.87
2019-04-16T02:51:15.929Z,3.35
2019-04-16T02:53:50.730Z,4.00
2019-04-16T02:56:27.153Z,3.67
2019-04-16T02:59:12.220Z,3.15
2019-04-16T03:01:49.447Z,3.37
2019-04-16T03:04:32.869Z,2.95
2019-04-16T03:09:28.699Z,3.05
2019-04-16T03:11:55.973Z,2.98
2019-04-16T03:14:23.461Z,2.67
2019-04-16T03:17:01.353Z,2.30
2019-04-16T03:19:33.534Z,2.95
2019-04-16T03:22:02.153Z,2.83
2019-04-16T03:24:30.662Z,3.67
2019-04-16T03:26:58.116Z,3.60
2019-04-16T03:29:27.529Z,4.00
2019-04-16T03:31:58.296Z,3.52
2019-04-16T03:34:23.453Z,3.90
2019-04-16T03:36:50.996Z,3.72
2019-04-16T03:39:18.226Z,4.10
2019-04-16T03:41:45.529Z,3.30
2019-04-16T03:44:12.944Z,3.33
2019-04-16T03:46:40.352Z,3.20
2019-04-16T03:49:09.085Z,3.87
2019-04-16T03:51:36.594Z,3.58
2019-04-16T03:54:05.038Z,2.42
2019-04-16T03:56:32.685Z,2.90
2019-04-16T03:58:59.913Z,2.60
2019-04-16T04:01:27.121Z,3.80
2019-04-16T04:03:57.289Z,3.35
2019-04-16T04:06:23.349Z,3.72
2019-04-16T04:08:53.211Z,2.90
2019-04-16T04:11:19.565Z,2.90
2019-04-16T04:13:49.795Z,3.40
2019-04-16T04:16:16.393Z,2.50
2019-04-16T04:18:43.969Z,2.77
2019-04-16T04:21:11.281Z,3.60
2019-04-16T04:23:38.480Z,3.00
2019-04-16T04:26:08.928Z,2.50
2019-04-16T04:28:34.630Z,3.12
2019-04-16T04:31:02.024Z,3.40
2019-04-16T04:33:40.655Z,3.00
2019-04-16T04:36:05.469Z,2.83
2019-04-16T04:38:33.656Z,3.35
2019-04-16T04:41:01.933Z,2.65
2019-04-16T04:43:29.341Z,2.52
2019-04-16T04:45:58.090Z,2.52
2019-04-16T04:48:25.422Z,2.70
2019-04-16T04:50:52.716Z,3.67
2019-04-16T04:53:20.157Z,3.37
2019-04-16T04:55:47.412Z,2.40
2019-04-16T04:58:14.617Z,3.08
2019-04-16T05:00:41.917Z,2.40
2019-04-16T05:03:12.467Z,2.90
2019-04-16T05:05:41.330Z,1.98
2019-04-16T05:08:08.977Z,2.50
2019-04-16T05:10:39.827Z,2.55
2019-04-16T05:13:05.202Z,2.30
2019-04-16T05:15:32.513Z,3.00
2019-04-16T05:17:59.784Z,3.22
2019-04-16T05:20:29.727Z,2.72
2019-04-16T05:22:58.033Z,3.40
2019-04-16T05:25:24.940Z,2.90
2019-04-16T05:27:52.136Z,3.77
2019-04-16T05:30:20.860Z,3.30
2019-04-16T05:32:48.280Z,3.87
2019-04-16T05:35:15.551Z,3.70
2019-04-16T05:37:43.069Z,3.25
2019-04-16T05:40:10.522Z,3.27
2019-04-16T05:42:37.862Z,3.10
2019-04-16T05:45:06.413Z,3.27
2019-04-16T05:47:33.737Z,2.83
2019-04-16T05:50:00.935Z,3.58
2019-04-16T05:52:28.231Z,3.10
2019-04-16T05:54:57.068Z,2.75
2019-04-16T05:57:40.719Z,2.70
2019-04-16T06:00:10.409Z,2.83
2019-04-16T06:02:39.727Z,2.80
2019-04-16T06:05:07.257Z,2.80
2019-04-16T06:07:37.731Z,3.45
2019-04-16T06:10:06.947Z,3.27
2019-04-16T06:12:45.061Z,3.83
2019-04-16T06:15:22.877Z,3.80
2019-04-16T06:18:08.197Z,3.20
2019-04-16T06:20:37.037Z,3.10
2019-04-16T06:23:05.873Z,3.45
2019-04-16T06:25:41.299Z,3.52
2019-04-16T06:28:14.244Z,4.05
2019-04-16T06:31:04.986Z,3.90
2019-04-16T06:33:30.619Z,3.70
2019-04-16T06:36:02.177Z,4.00
2019-04-16T06:38:31.133Z,5.10
2019-04-16T06:41:03.339Z,5.12
2019-04-16T06:43:42.105Z,5.62
2019-04-16T06:46:27.323Z,4.33
2019-04-16T06:49:02.543Z,4.05
2019-04-16T06:51:44.580Z,4.80
2019-04-16T06:54:32.848Z,4.90
2019-04-16T06:57:19.161Z,4.60
2019-04-16T07:00:02.351Z,3.92
2019-04-16T07:02:37.204Z,4.90
2019-04-16T07:05:04.081Z,4.55
2019-04-16T07:07:39.918Z,4.92
2019-04-16T07:10:06.197Z,4.53
2019-04-16T07:12:37.990Z,5.50
2019-04-16T07:15:03.277Z,4.17
2019-04-16T07:17:33.758Z,3.75
2019-04-16T07:19:59.733Z,4.28
2019-04-16T07:22:27.003Z,3.80
2019-04-16T07:24:57.420Z,4.08
2019-04-16T07:27:25.215Z,4.53
2019-04-16T07:29:54.202Z,4.58
2019-04-16T07:32:23.104Z,4.10
2019-04-16T07:34:55.131Z,4.25
2019-04-16T07:37:24.216Z,5.40
2019-04-16T07:39:59.248Z,4.65
2019-04-16T07:42:34.181Z,5.67
2019-04-16T07:45:03.128Z,4.72
2019-04-16T07:47:51.626Z,4.45
2019-04-16T07:50:29.572Z,4.43
2019-04-16T07:53:02.140Z,6.12
2019-04-16T07:55:47.564Z,4.58
2019-04-16T07:58:14.912Z,6.45
2019-04-16T08:00:42.263Z,6.28
2019-04-16T08:03:09.830Z,5.10
2019-04-16T08:05:37.881Z,3.90
2019-04-16T08:08:06.456Z,3.42
2019-04-16T08:10:34.128Z,3.77
2019-04-16T08:13:02.966Z,3.90
2019-04-16T08:15:32.325Z,3.70
2019-04-16T08:17:59.906Z,4.15
2019-04-16T08:20:27.171Z,3.90
2019-04-16T08:22:56.093Z,4.80
2019-04-16T08:25:33.690Z,4.83
2019-04-16T08:27:59.453Z,5.05
2019-04-16T08:30:27.122Z,6.97
2019-04-16T08:32:54.463Z,4.75
2019-04-16T08:35:21.920Z,4.37
2019-04-16T08:37:49.651Z,6.45
2019-04-16T08:40:17.352Z,7.37
2019-04-16T08:42:45.135Z,7.15
2019-04-16T08:45:12.604Z,6.30
2019-04-16T08:47:44.617Z,4.97
2019-04-16T08:50:11.974Z,6.67
2019-04-16T08:52:38.608Z,7.83
2019-04-16T08:55:07.137Z,8.35
2019-04-16T08:57:34.520Z,8.95
2019-04-16T09:00:02.046Z,8.53
2019-04-16T09:02:29.456Z,8.10
2019-04-16T09:04:57.573Z,8.18
2019-04-16T09:07:40.249Z,9.40
2019-04-16T09:10:17.098Z,9.58
2019-04-16T09:12:42.099Z,6.80
2019-04-16T09:15:08.079Z,5.25
2019-04-16T09:17:37.102Z,7.08
2019-04-16T09:20:09.279Z,8.73
2019-04-16T09:22:48.103Z,6.57
2019-04-16T09:25:12.529Z,6.78
2019-04-16T09:27:38.612Z,6.05
2019-04-16T09:30:16.794Z,6.53
2019-04-16T09:32:47.199Z,6.97
2019-04-16T09:35:31.321Z,7.33
2019-04-16T09:38:00.244Z,8.90
2019-04-16T09:40:37.929Z,7.05
2019-04-16T09:43:17.181Z,8.18
2019-04-16T09:45:41.926Z,9.80
2019-04-16T09:48:09.297Z,10.03
2019-04-16T09:50:36.582Z,10.20
2019-04-16T09:53:04.050Z,10.13
2019-04-16T09:55:31.392Z,8.98
2019-04-16T09:58:00.416Z,6.67
2019-04-16T10:00:35.368Z,9.53
2019-04-16T10:03:07.209Z,9.95
2019-04-16T10:05:34.986Z,8.47
2019-04-16T10:08:02.356Z,7.72
2019-04-16T10:10:29.563Z,7.50
2019-04-16T10:12:57.285Z,9.60
2019-04-16T10:15:24.637Z,9.30
2019-04-16T10:17:52.027Z,7.37
2019-04-16T10:20:19.336Z,6.10
2019-04-16T10:22:46.703Z,8.30
2019-04-16T10:25:15.014Z,7.15
2019-04-16T10:27:46.520Z,7.37
2019-04-16T10:30:15.548Z,8.83
2019-04-16T10:32:42.879Z,8.98
2019-04-16T10:35:10.171Z,6.97
2019-04-16T10:37:37.692Z,6.92
2019-04-16T10:40:09.785Z,9.80
2019-04-16T10:42:56.924Z,10.37
2019-04-16T10:45:31.990Z,8.27
2019-04-16T10:48:06.389Z,7.08
2019-04-16T10:50:41.632Z,7.40
2019-04-16T10:53:13.548Z,6.30
2019-04-16T10:55:51.336Z,5.45
2019-04-16T10:58:35.991Z,6.70
2019-04-16T11:01:21.269Z,5.72
2019-04-16T11:03:50.187Z,10.48
2019-04-16T11:06:22.105Z,11.75
2019-04-16T11:08:49.307Z,10.13
2019-04-16T11:11:16.612Z,10.72
2019-04-16T11:13:59.321Z,10.10
2019-04-16T11:16:15.782Z,8.23
2019-04-16T11:18:43.129Z,10.48
2019-04-16T11:21:10.737Z,9.58
2019-04-16T11:23:37.981Z,11.55
2019-04-16T11:26:05.237Z,11.60
2019-04-16T11:28:32.465Z,11.93
2019-04-16T11:31:07.047Z,10.30
2019-04-16T11:33:34.284Z,13.65
2019-04-16T11:36:16.399Z,12.65
2019-04-16T11:38:30.496Z,11.70
2019-04-16T11:40:57.702Z,12.88
2019-04-16T11:43:25.049Z,10.60
2019-04-16T11:45:52.473Z,12.80
2019-04-16T11:48:19.794Z,13.95
2019-04-16T11:50:47.064Z,12.82
2019-04-16T11:53:14.564Z,11.97
2019-04-16T11:55:41.795Z,11.78
2019-04-16T11:58:10.754Z,12.03
2019-04-16T12:00:39.676Z,11.28
2019-04-16T12:03:17.483Z,12.13
2019-04-16T12:06:02.498Z,10.90
2019-04-16T12:08:36.877Z,10.30
2019-04-16T12:11:08.788Z,8.43
2019-04-16T12:13:54.101Z,8.20
2019-04-16T12:16:24.399Z,8.43
2019-04-16T12:18:59.265Z,9.05
2019-04-16T12:21:36.926Z,7.80
2019-04-16T12:24:06.472Z,6.97
2019-04-16T12:26:53.336Z,7.15
2019-04-16T12:29:23.226Z,7.42
2019-04-16T12:32:03.577Z,6.20
2019-04-16T12:34:31.892Z,5.47
2019-04-16T12:37:00.798Z,5.55
2019-04-16T12:39:35.612Z,6.60
2019-04-16T12:42:06.193Z,5.30
2019-04-16T12:44:45.042Z,6.28
2019-04-16T12:47:08.778Z,6.12
2019-04-16T12:49:53.781Z,6.58
2019-04-16T12:52:31.532Z,6.33
2019-04-16T12:55:16.865Z,5.28
2019-04-16T12:57:54.541Z,5.72
2019-04-16T13:00:31.498Z,7.22
2019-04-16T13:03:17.537Z,7.78
2019-04-16T13:06:02.150Z,7.00
2019-04-16T13:08:48.086Z,6.08
2019-04-16T13:11:25.329Z,6.55
2019-04-16T13:14:10.389Z,7.22
2019-04-16T13:16:39.296Z,7.65
2019-04-16T13:19:08.166Z,6.60
2019-04-16T13:21:37.332Z,5.58
2019-04-16T13:24:09.224Z,6.08
2019-04-16T13:26:41.315Z,8.00
2019-04-16T13:29:10.445Z,7.55
2019-04-16T13:31:38.961Z,7.20
2019-04-16T13:34:06.565Z,7.20
2019-04-16T13:36:33.884Z,6.75
2019-04-16T13:39:05.668Z,6.65
2019-04-16T13:41:32.906Z,6.95
2019-04-16T13:44:10.848Z,6.72
2019-04-16T13:46:38.078Z,7.83
2019-04-16T13:49:06.995Z,7.53
2019-04-16T13:51:35.959Z,6.47
2019-04-16T13:54:13.446Z,5.60
2019-04-16T13:56:42.383Z,7.87
2019-04-16T13:59:11.216Z,6.85
2019-04-16T14:01:58.952Z,7.62
2019-04-16T14:04:30.460Z,7.72
2019-04-16T14:06:53.996Z,8.53
2019-04-16T14:09:21.275Z,8.93
2019-04-16T14:11:51.407Z,8.15
2019-04-16T14:39:44.541Z,7.28
2019-04-16T14:42:12.184Z,7.28
2019-04-16T14:44:41.019Z,6.53
2019-04-16T14:47:08.219Z,6.95
2019-04-16T14:49:35.466Z,7.20
2019-04-16T14:52:03.642Z,7.58
2019-04-16T14:54:38.942Z,6.70
2019-04-16T14:57:10.903Z,7.67
2019-04-16T14:59:38.376Z,6.60
2019-04-16T15:02:13.499Z,6.35
2019-04-16T15:04:51.541Z,6.72
2019-04-16T15:07:23.445Z,7.65
2019-04-16T15:10:02.791Z,7.50
2019-04-16T15:12:40.759Z,8.68
2019-04-16T15:15:25.604Z,8.35
2019-04-16T15:17:57.032Z,7.78
2019-04-16T15:20:25.873Z,9.20
2019-04-16T15:23:01.089Z,8.48
2019-04-16T15:25:39.353Z,7.92
2019-04-16T15:28:08.948Z,8.08
2019-04-16T15:30:52.765Z,8.10
2019-04-16T15:33:27.493Z,9.88
2019-04-16T15:35:56.728Z,8.88
2019-04-16T15:38:26.659Z,8.00
2019-04-16T15:41:13.073Z,8.03
2019-04-16T15:43:50.877Z,9.20
2019-04-16T15:46:29.542Z,9.48
2019-04-16T15:49:01.361Z,8.80
2019-04-16T15:51:44.318Z,8.73
2019-04-16T15:54:12.961Z,8.98
2019-04-16T15:56:47.576Z,8.50
2019-04-16T15:59:18.833Z,7.58
2019-04-16T16:02:03.877Z,7.40
2019-04-16T16:04:38.894Z,6.53
2019-04-16T16:07:08.674Z,7.15
2019-04-16T16:09:49.403Z,8.55
2019-04-16T16:12:22.110Z,7.70
2019-04-16T16:14:47.484Z,8.63
2019-04-16T16:17:14.729Z,8.55
2019-04-16T16:19:41.934Z,7.80
2019-04-16T16:22:11.926Z,8.48
2019-04-16T16:24:42.039Z,8.08
2019-04-16T16:27:07.103Z,7.15
2019-04-16T16:29:34.372Z,7.12
2019-04-16T16:32:01.604Z,6.15
2019-04-16T16:34:28.813Z,6.42
2019-04-16T16:36:56.275Z,5.60
2019-04-16T16:39:23.630Z,5.28
2019-04-16T16:41:50.921Z,3.42
2019-04-16T16:44:18.197Z,2.67
2019-04-16T16:46:57.982Z,1.82
2019-04-16T16:49:25.012Z,1.30
2019-04-16T16:52:02.764Z,1.77
2019-04-16T16:54:30.012Z,1.10
2019-04-16T16:57:10.646Z,0.98
2019-04-16T16:59:42.472Z,0.80
2019-04-16T17:02:22.969Z,0.67
2019-04-16T17:04:51.807Z,0.65
2019-04-16T17:07:22.461Z,0.60
2019-04-16T17:09:49.712Z,0.60
2019-04-16T17:12:16.913Z,0.70
2019-04-16T17:14:44.110Z,0.72
2019-04-16T17:17:14.989Z,0.90
2019-04-16T17:19:40.647Z,1.10
2019-04-16T17:22:07.924Z,1.30
2019-04-16T17:24:35.680Z,1.15
2019-04-16T17:27:02.872Z,1.02
2019-04-16T17:29:30.073Z,1.10
2019-04-16T17:31:57.313Z,1.02
2019-04-16T17:34:24.579Z,1.00
2019-04-16T17:36:52.115Z,0.65
2019-04-16T17:39:21.325Z,0.60
2019-04-16T17:41:55.288Z,0.50
2019-04-16T17:44:27.274Z,0.70
2019-04-16T17:46:57.424Z,0.40
2019-04-16T17:49:26.287Z,0.40
2019-04-16T17:52:07.196Z,0.30
2019-04-16T17:54:36.096Z,0.55
2019-04-16T17:57:11.189Z,0.80
2019-04-16T17:59:40.023Z,1.05
2019-04-16T18:02:28.110Z,1.10
2019-04-16T18:05:01.911Z,1.22
2019-04-16T18:07:42.940Z,1.00
2019-04-16T18:10:27.005Z,1.17
2019-04-16T18:12:59.016Z,1.30
2019-04-16T18:15:33.779Z,1.10
2019-04-16T18:18:03.075Z,0.98
2019-04-16T18:20:34.757Z,0.75
2019-04-16T18:23:12.569Z,0.50
2019-04-16T18:25:55.533Z,0.90
2019-04-16T18:28:18.238Z,0.50
2019-04-16T18:30:47.145Z,0.70
2019-04-16T18:33:19.036Z,0.50
2019-04-16T18:35:53.975Z,0.70
2019-04-16T18:38:25.672Z,0.60
2019-04-16T18:41:03.616Z,0.40
2019-04-16T18:43:30.632Z,0.40
2019-04-16T18:46:15.060Z,0.30
2019-04-16T18:48:45.521Z,0.30
2019-04-16T18:51:12.820Z,0.40
2019-04-16T18:53:42.867Z,0.45
2019-04-16T18:56:09.109Z,0.40
2019-04-16T18:58:36.584Z,0.33
2019-04-16T19:01:05.689Z,0.37
2019-04-16T19:03:32.995Z,0.37
2019-04-16T19:06:00.296Z,0.40
2019-04-16T19:08:40.778Z,0.68
2019-04-16T19:10:56.513Z,0.35
2019-04-16T19:13:23.780Z,0.35
2019-04-16T19:15:51.021Z,0.37
2019-04-16T19:18:20.210Z,0.37
2019-04-16T19:20:51.540Z,0.28
2019-04-16T19:23:16.237Z,0.20
2019-04-16T19:25:43.436Z,0.20
2019-04-16T19:28:10.986Z,0.30
2019-04-16T19:30:38.409Z,0.20
2019-04-16T19:33:05.664Z,0.20
2019-04-16T19:35:32.864Z,0.20
2019-04-16T19:38:02.647Z,0.37
2019-04-16T19:40:29.381Z,0.20
2019-04-16T19:42:57.787Z,0.40
2019-04-16T19:45:25.856Z,0.30
2019-04-16T19:47:53.386Z,0.20
2019-04-16T19:50:20.941Z,0.40
2019-04-16T19:52:48.205Z,0.20
2019-04-16T19:55:15.483Z,0.93
2019-04-16T19:57:42.747Z,1.98
2019-04-16T20:00:09.979Z,2.00
2019-04-16T20:02:37.252Z,1.50
2019-04-16T20:05:04.932Z,1.50
2019-04-16T20:07:32.892Z,1.00
2019-04-16T20:10:00.945Z,1.20
2019-04-16T20:12:29.001Z,1.07
2019-04-16T20:14:56.300Z,1.10
2019-04-16T20:17:23.525Z,0.72
2019-04-16T20:19:57.234Z,0.50
2019-04-16T20:22:24.669Z,0.50
2019-04-16T20:24:51.869Z,0.85
2019-04-16T20:27:19.720Z,0.60
2019-04-16T20:29:47.321Z,1.10
2019-04-16T20:32:14.621Z,0.95
2019-04-16T20:34:42.364Z,1.67
2019-04-16T20:37:10.764Z,1.00
2019-04-16T20:39:40.738Z,1.12
2019-04-16T20:42:06.912Z,1.10
2019-04-16T20:44:34.185Z,0.98
2019-04-16T20:47:03.592Z,1.00
2019-04-16T20:49:30.410Z,1.30
2019-04-16T20:52:00.622Z,1.20
2019-04-16T20:54:26.832Z,1.22
2019-04-16T20:56:54.103Z,1.12
2019-04-16T20:59:21.506Z,1.20
2019-04-16T21:01:48.774Z,1.30
2019-04-16T21:04:15.973Z,1.17
2019-04-16T21:06:43.640Z,1.30
2019-04-16T21:09:10.835Z,1.70
2019-04-16T21:11:41.017Z,1.10
2019-04-16T21:14:07.861Z,1.00
2019-04-16T21:16:35.134Z,1.10
2019-04-16T21:19:02.336Z,0.60
2019-04-16T21:21:29.653Z,0.80
2019-04-16T21:23:56.850Z,1.02
2019-04-16T21:26:24.046Z,1.40
2019-04-16T21:28:58.249Z,1.60
2019-04-16T21:31:26.408Z,1.40
2019-04-16T21:33:57.902Z,1.15
2019-04-16T21:36:41.610Z,1.35
2019-04-16T21:39:17.183Z,1.10
2019-04-16T21:44:12.976Z,1.12
2019-04-16T21:46:37.757Z,1.40
2019-04-16T21:49:07.792Z,1.42
2019-04-16T21:51:33.901Z,1.22
2019-04-16T21:54:01.418Z,0.68
2019-04-16T21:56:28.653Z,0.95
2019-04-16T21:58:55.889Z,1.17
2019-04-16T22:01:24.796Z,1.00
2019-04-16T22:04:02.873Z,1.10
2019-04-16T22:06:30.068Z,1.20
2019-04-16T22:09:01.712Z,1.00
2019-04-16T22:11:26.376Z,0.88
2019-04-16T22:13:53.573Z,1.05
2019-04-16T22:16:20.772Z,0.98
2019-04-16T22:18:48.003Z,0.90
2019-04-16T22:21:15.197Z,0.80
2019-04-16T22:23:42.393Z,0.80
2019-04-16T22:26:10.973Z,0.78
2019-04-16T22:28:38.285Z,0.72
2019-04-16T22:31:05.486Z,0.70
2019-04-16T22:33:33.168Z,0.80
2019-04-16T22:36:00.441Z,0.60
2019-04-16T22:38:29.505Z,0.90
2019-04-16T22:41:09.920Z,0.80
2019-04-16T22:43:39.622Z,0.68
2019-04-16T22:46:09.380Z,0.70
2019-04-16T22:48:37.060Z,0.88
2019-04-16T22:51:09.681Z,0.65
2019-04-16T22:53:33.166Z,0.60
2019-04-16T22:56:01.093Z,0.40
2019-04-16T22:58:46.128Z,0.80
2019-04-16T23:01:14.130Z,0.40
2019-04-16T23:03:41.976Z,0.40
2019-04-16T23:06:09.506Z,0.50
2019-04-16T23:08:36.773Z,0.23
2019-04-16T23:11:03.968Z,0.25
2019-04-16T23:13:32.570Z,0.30
2019-04-16T23:16:00.193Z,0.23
2019-04-16T23:18:27.461Z,0.10
2019-04-16T23:20:54.660Z,0.20
2019-04-16T23:23:21.888Z,0.20
2019-04-16T23:25:49.114Z,0.25
2019-04-16T23:28:16.311Z,0.30
2019-04-16T23:30:43.528Z,0.20
2019-04-16T23:33:10.729Z,0.20
2019-04-16T23:35:43.162Z,0.30
2019-04-16T23:38:06.873Z,0.20
2019-04-16T23:40:34.169Z,0.28
2019-04-16T23:43:15.091Z,0.30
2019-04-16T23:45:52.536Z,0.30
2019-04-16T23:48:30.354Z,0.40
2019-04-16T23:51:02.301Z,0.42
2019-04-16T23:53:47.484Z,0.40
2019-04-16T23:56:22.110Z,0.40
2019-04-16T23:58:51.022Z,0.50
